createdAt,value
2018-05-02T00:01:47.605Z,100946.83
2018-05-02T00:04:50.165Z,100941.17
2018-05-02T00:07:52.737Z,100951.98
2018-05-02T00:10:55.248Z,100955.09
2018-05-02T00:13:57.797Z,100963.84
2018-05-02T00:17:00.311Z,100969.88
2018-05-02T00:20:02.882Z,100970.55
2018-05-02T00:23:05.459Z,100978.19
2018-05-02T00:26:07.955Z,100960.80
2018-05-02T00:29:10.472Z,100964.95
2018-05-02T00:32:12.992Z,100968.06
2018-05-02T00:35:15.491Z,100965.48
2018-05-02T00:38:17.978Z,100971.27
2018-05-02T00:41:20.548Z,100963.29
2018-05-02T00:44:23.044Z,100960.50
2018-05-02T00:47:25.561Z,100962.13
2018-05-02T00:50:28.061Z,100962.75
2018-05-02T00:53:30.550Z,100970.30
2018-05-02T00:56:33.039Z,100967.49
2018-05-02T00:59:35.508Z,100968.15
2018-05-02T01:02:38.016Z,100969.62
2018-05-02T01:05:40.535Z,100975.73
2018-05-02T01:08:43.031Z,100963.27
2018-05-02T01:11:45.549Z,100970.11
2018-05-02T01:14:48.092Z,100971.28
2018-05-02T01:17:50.714Z,100978.98
2018-05-02T01:20:53.226Z,100985.08
2018-05-02T01:23:55.707Z,100994.23
2018-05-02T01:27:01.059Z,100990.92
2018-05-02T01:30:03.600Z,100996.45
2018-05-02T01:33:06.148Z,100990.98
2018-05-02T01:36:08.614Z,100995.25
2018-05-02T01:39:11.102Z,100994.02
2018-05-02T01:42:13.606Z,100997.32
2018-05-02T01:45:16.091Z,101000.48
2018-05-02T01:48:18.591Z,101005.55
2018-05-02T01:51:21.131Z,101017.02
2018-05-02T01:54:23.591Z,101018.38
2018-05-02T01:57:26.064Z,101017.38
2018-05-02T02:00:28.570Z,101023.91
2018-05-02T02:03:31.091Z,101021.22
2018-05-02T02:06:33.595Z,101024.92
2018-05-02T02:09:36.080Z,101024.34
2018-05-02T02:12:38.578Z,101025.00
2018-05-02T02:15:41.075Z,101021.92
2018-05-02T02:18:43.539Z,101015.28
2018-05-02T02:21:46.062Z,101014.05
2018-05-02T02:24:48.595Z,101006.22
2018-05-02T02:27:51.084Z,101007.81
2018-05-02T02:30:53.570Z,101005.98
2018-05-02T02:33:56.125Z,100998.22
2018-05-02T02:36:58.596Z,100988.27
2018-05-02T02:40:01.098Z,100994.04
2018-05-02T02:43:03.585Z,100991.55
2018-05-02T02:46:06.082Z,100995.88
2018-05-02T02:49:08.568Z,100990.58
2018-05-02T02:52:11.097Z,100997.13
2018-05-02T02:55:13.629Z,100991.56
2018-05-02T02:58:16.074Z,100984.88
2018-05-02T03:01:18.625Z,100990.74
2018-05-02T03:04:21.124Z,100999.49
2018-05-02T03:07:24.297Z,100997.98
2018-05-02T03:10:26.823Z,100994.78
2018-05-02T03:13:29.342Z,100995.00
2018-05-02T03:16:31.864Z,100990.67
2018-05-02T03:19:34.402Z,100994.22
2018-05-02T03:22:36.913Z,100994.72
2018-05-02T03:25:39.405Z,100992.72
2018-05-02T03:28:41.951Z,100992.21
2018-05-02T03:31:44.759Z,101005.73
2018-05-02T03:34:47.508Z,100997.67
2018-05-02T03:37:50.083Z,100992.89
2018-05-02T03:40:52.588Z,100994.62
2018-05-02T03:43:55.112Z,101000.87
2018-05-02T03:46:57.597Z,100995.06
2018-05-02T03:50:00.089Z,101002.19
2018-05-02T03:53:02.642Z,101002.73
2018-05-02T03:56:05.072Z,100999.03
2018-05-02T03:59:07.611Z,100995.68
2018-05-02T04:02:21.716Z,101003.70
2018-05-02T04:05:35.812Z,101003.36
2018-05-02T04:08:38.352Z,101001.96
2018-05-02T04:11:40.834Z,101000.97
2018-05-02T04:14:43.301Z,101008.09
2018-05-02T04:17:45.782Z,101004.40
2018-05-02T04:20:48.250Z,101007.59
2018-05-02T04:23:50.730Z,101012.57
2018-05-02T04:26:54.229Z,101012.48
2018-05-02T04:29:56.748Z,101021.30
2018-05-02T04:32:59.211Z,101018.22
2018-05-02T04:36:01.730Z,101022.09
2018-05-02T04:39:04.226Z,101023.59
2018-05-02T04:42:06.707Z,101027.59
2018-05-02T04:45:09.206Z,101029.99
2018-05-02T04:48:11.748Z,101037.77
2018-05-02T04:51:14.230Z,101045.56
2018-05-02T04:54:16.786Z,101054.50
2018-05-02T04:57:19.289Z,101052.38
2018-05-02T05:00:21.763Z,101041.03
2018-05-02T05:03:24.241Z,101047.52
2018-05-02T05:06:26.744Z,101056.20
2018-05-02T05:09:29.223Z,101062.57
2018-05-02T05:12:31.716Z,101066.86
2018-05-02T05:15:34.232Z,101074.36
2018-05-02T05:18:36.869Z,101079.36
2018-05-02T05:21:39.365Z,101080.45
2018-05-02T05:24:41.884Z,101083.66
2018-05-02T05:27:45.315Z,101086.83
2018-05-02T05:30:47.798Z,101093.15
2018-05-02T05:33:50.303Z,101092.42
2018-05-02T05:36:52.828Z,101099.31
2018-05-02T05:39:55.347Z,101096.17
2018-05-02T05:42:57.839Z,101096.10
2018-05-02T05:46:00.379Z,101092.42
2018-05-02T05:49:02.962Z,101088.68
2018-05-02T05:52:05.458Z,101086.92
2018-05-02T05:55:07.935Z,101093.94
2018-05-02T05:58:10.443Z,101093.54
2018-05-02T06:01:12.947Z,101091.45
2018-05-02T06:04:15.459Z,101101.02
2018-05-02T06:07:18.698Z,101097.32
2018-05-02T06:10:21.181Z,101103.53
2018-05-02T06:13:23.966Z,101097.09
2018-05-02T06:16:26.482Z,101105.94
2018-05-02T06:19:29.016Z,101102.30
2018-05-02T06:22:31.526Z,101104.53
2018-05-02T06:25:34.020Z,101103.95
2018-05-02T06:28:36.493Z,101109.72
2018-05-02T06:31:39.024Z,101110.23
2018-05-02T06:34:41.500Z,101106.44
2018-05-02T06:37:44.165Z,101112.91
2018-05-02T06:40:46.544Z,101117.98
2018-05-02T06:43:49.108Z,101119.53
2018-05-02T06:46:51.705Z,101114.90
2018-05-02T06:49:54.396Z,101111.37
2018-05-02T06:52:56.893Z,101108.70
2018-05-02T06:55:59.398Z,101107.85
2018-05-02T06:59:01.897Z,101097.97
2018-05-02T07:02:04.388Z,101086.25
2018-05-02T07:05:06.897Z,101088.59
2018-05-02T07:08:09.432Z,101087.41
2018-05-02T07:11:11.959Z,101085.07
2018-05-02T07:14:14.489Z,101081.92
2018-05-02T07:17:16.989Z,101087.31
2018-05-02T07:20:19.621Z,101089.06
2018-05-02T07:23:22.127Z,101092.27
2018-05-02T07:26:25.385Z,101091.83
2018-05-02T07:29:27.878Z,101088.42
2018-05-02T07:32:30.542Z,101093.48
2018-05-02T07:35:32.982Z,101083.38
2018-05-02T07:38:35.480Z,101081.42
2018-05-02T07:41:37.953Z,101084.19
2018-05-02T07:44:40.473Z,101083.33
2018-05-02T07:47:43.005Z,101081.52
2018-05-02T07:50:45.556Z,101076.78
2018-05-02T07:53:48.186Z,101080.09
2018-05-02T07:56:50.701Z,101081.00
2018-05-02T07:59:53.250Z,101080.30
2018-05-02T08:02:55.750Z,101078.56
2018-05-02T08:05:58.243Z,101075.11
2018-05-02T08:09:00.858Z,101077.11
2018-05-02T08:12:03.373Z,101080.23
2018-05-02T08:15:05.884Z,101081.47
2018-05-02T08:18:08.426Z,101080.05
2018-05-02T08:21:10.952Z,101067.29
2018-05-02T08:24:13.459Z,101065.34
2018-05-02T08:27:16.113Z,101065.49
2018-05-02T08:30:18.697Z,101058.28
2018-05-02T08:33:21.198Z,101060.02
2018-05-02T08:36:24.253Z,101051.75
2018-05-02T08:39:26.779Z,101048.88
2018-05-02T08:42:29.386Z,101043.56
2018-05-02T08:45:32.007Z,101042.57
2018-05-02T08:48:34.515Z,101039.72
2018-05-02T08:51:37.061Z,101053.23
2018-05-02T08:54:39.674Z,101049.33
2018-05-02T08:57:42.207Z,101053.55
2018-05-02T09:00:45.612Z,101052.50
2018-05-02T09:03:48.249Z,101047.03
2018-05-02T09:06:50.750Z,101044.88
2018-05-02T09:09:54.431Z,101044.50
2018-05-02T09:12:56.973Z,101051.31
2018-05-02T09:15:59.497Z,101047.22
2018-05-02T09:19:01.985Z,101051.66
2018-05-02T09:22:04.491Z,101035.41
2018-05-02T09:25:06.992Z,101037.34
2018-05-02T09:28:09.468Z,101027.90
2018-05-02T09:31:11.994Z,101031.05
2018-05-02T09:34:14.513Z,101028.58
2018-05-02T09:37:17.106Z,101025.25
2018-05-02T09:40:19.687Z,101022.20
2018-05-02T09:43:22.182Z,101015.41
2018-05-02T09:46:24.717Z,101019.31
2018-05-02T09:49:27.236Z,101019.84
2018-05-02T09:52:29.749Z,101012.96
2018-05-02T09:55:32.258Z,101006.17
2018-05-02T09:58:34.826Z,101010.34
2018-05-02T10:01:37.345Z,101009.58
2018-05-02T10:04:39.870Z,101005.08
2018-05-02T10:07:42.362Z,101007.77
2018-05-02T10:10:44.903Z,101005.69
2018-05-02T10:13:47.416Z,101007.58
2018-05-02T10:16:49.939Z,100998.98
2018-05-02T10:19:53.411Z,100991.08
2018-05-02T10:22:55.911Z,100993.41
2018-05-02T10:25:58.414Z,100982.95
2018-05-02T10:29:00.948Z,100986.26
2018-05-02T10:32:03.452Z,100982.14
2018-05-02T10:35:05.953Z,100984.27
2018-05-02T10:38:08.483Z,100969.91
2018-05-02T10:41:11.605Z,100971.80
2018-05-02T10:44:14.088Z,100967.72
2018-05-02T10:47:16.631Z,100975.64
2018-05-02T10:50:19.151Z,100966.39
2018-05-02T10:53:21.680Z,100960.62
2018-05-02T10:56:24.164Z,100961.50
2018-05-02T10:59:26.749Z,100971.96
2018-05-02T11:02:29.270Z,100970.80
2018-05-02T11:05:31.783Z,100956.18
2018-05-02T11:08:35.531Z,100959.77
2018-05-02T11:11:38.050Z,100961.14
2018-05-02T11:14:40.570Z,100956.50
2018-05-02T11:17:43.090Z,100959.72
2018-05-02T11:20:45.595Z,100959.33
2018-05-02T11:23:48.101Z,100956.49
2018-05-02T11:26:50.607Z,100973.20
2018-05-02T11:29:53.097Z,100974.44
2018-05-02T11:32:55.566Z,100961.57
2018-05-02T11:35:58.063Z,100955.27
2018-05-02T11:39:00.620Z,100961.75
2018-05-02T11:42:03.155Z,100965.58
2018-05-02T11:45:05.689Z,100968.58
2018-05-02T11:48:08.164Z,100970.14
2018-05-02T11:51:10.720Z,100971.69
2018-05-02T11:54:13.232Z,100958.64
2018-05-02T11:57:15.724Z,100953.52
2018-05-02T12:00:18.292Z,100944.63
2018-05-02T12:03:21.294Z,100937.81
2018-05-02T12:06:23.356Z,100939.87
2018-05-02T12:09:25.870Z,100937.95
2018-05-02T12:12:28.367Z,100937.52
2018-05-02T12:15:31.339Z,100933.52
2018-05-02T12:18:33.831Z,100930.35
2018-05-02T12:21:36.403Z,100923.85
2018-05-02T12:24:38.913Z,100914.59
2018-05-02T12:27:41.408Z,100909.22
2018-05-02T12:30:43.965Z,100905.73
2018-05-02T12:33:46.454Z,100896.78
2018-05-02T12:36:49.126Z,100889.57
2018-05-02T12:39:51.773Z,100882.50
2018-05-02T12:42:54.350Z,100875.36
2018-05-02T12:45:56.859Z,100870.94
2018-05-02T12:48:59.416Z,100870.14
2018-05-02T12:52:01.952Z,100865.09
2018-05-02T12:55:04.558Z,100857.33
2018-05-02T12:58:07.005Z,100854.23
2018-05-02T13:01:09.549Z,100842.77
2018-05-02T13:04:12.059Z,100835.07
2018-05-02T13:07:14.572Z,100830.52
2018-05-02T13:10:17.085Z,100819.16
2018-05-02T13:13:19.639Z,100811.58
2018-05-02T13:16:22.144Z,100803.08
2018-05-02T13:19:24.615Z,100804.32
2018-05-02T13:22:27.182Z,100805.31
2018-05-02T13:25:29.715Z,100816.27
2018-05-02T13:28:32.256Z,100807.59
2018-05-02T13:31:34.812Z,100807.05
2018-05-02T13:34:37.366Z,100801.52
2018-05-02T13:37:39.916Z,100786.83
2018-05-02T13:40:42.507Z,100771.77
2018-05-02T13:43:45.011Z,100755.48
2018-05-02T13:46:47.527Z,100756.13
2018-05-02T13:49:50.105Z,100752.75
2018-05-02T13:52:52.671Z,100758.92
2018-05-02T13:55:55.213Z,100750.62
2018-05-02T13:58:57.730Z,100748.27
2018-05-02T14:02:00.284Z,100745.36
2018-05-02T14:05:02.864Z,100735.17
2018-05-02T14:08:05.427Z,100728.02
2018-05-02T14:11:07.953Z,100719.70
2018-05-02T14:14:10.496Z,100719.41
2018-05-02T14:17:13.019Z,100723.90
2018-05-02T14:20:15.530Z,100721.28
2018-05-02T14:23:18.072Z,100714.47
2018-05-02T14:26:20.556Z,100699.02
2018-05-02T14:29:23.089Z,100703.41
2018-05-02T14:32:25.632Z,100701.46
2018-05-02T14:35:28.150Z,100680.98
2018-05-02T14:38:30.796Z,100683.80
2018-05-02T14:41:33.368Z,100696.82
2018-05-02T14:44:35.901Z,100694.03
2018-05-02T14:47:38.502Z,100686.82
2018-05-02T14:50:41.020Z,100692.34
2018-05-02T14:53:43.595Z,100698.93
2018-05-02T14:56:46.158Z,100696.03
2018-05-02T14:59:48.742Z,100694.35
2018-05-02T15:02:51.285Z,100690.11
2018-05-02T15:05:53.785Z,100685.45
2018-05-02T15:08:56.330Z,100688.22
2018-05-02T15:11:58.837Z,100685.98
2018-05-02T15:15:01.421Z,100676.80
2018-05-02T15:18:04.066Z,100682.84
2018-05-02T15:21:06.568Z,100682.73
2018-05-02T15:24:09.088Z,100677.42
2018-05-02T15:27:11.645Z,100677.48
2018-05-02T15:30:14.322Z,100678.42
2018-05-02T15:33:16.977Z,100686.44
2018-05-02T15:36:19.496Z,100684.80
2018-05-02T15:39:22.142Z,100677.98
2018-05-02T15:42:24.746Z,100674.16
2018-05-02T15:45:27.261Z,100676.37
2018-05-02T15:48:29.780Z,100673.22
2018-05-02T15:51:32.345Z,100669.09
2018-05-02T15:54:34.878Z,100673.50
2018-05-02T15:57:37.757Z,100673.95
2018-05-02T16:00:40.381Z,100676.16
2018-05-02T16:03:42.921Z,100669.36
2018-05-02T16:06:45.437Z,100660.89
2018-05-02T16:09:47.997Z,100648.15
2018-05-02T16:12:50.533Z,100645.77
2018-05-02T16:15:53.085Z,100641.51
2018-05-02T16:18:55.648Z,100639.38
2018-05-02T16:21:58.273Z,100646.72
2018-05-02T16:25:00.839Z,100640.09
2018-05-02T16:28:03.475Z,100648.42
2018-05-02T16:31:06.127Z,100638.70
2018-05-02T16:34:08.833Z,100642.10
2018-05-02T16:37:11.426Z,100634.17
2018-05-02T16:40:14.008Z,100635.52
2018-05-02T16:43:16.597Z,100633.24
2018-05-02T16:46:19.115Z,100634.23
2018-05-02T16:49:21.691Z,100642.41
2018-05-02T16:52:24.246Z,100636.53
2018-05-02T16:55:26.778Z,100625.44
2018-05-02T16:58:29.371Z,100624.22
2018-05-02T17:01:31.989Z,100628.33
2018-05-02T17:04:34.720Z,100624.97
2018-05-02T17:07:37.241Z,100621.27
2018-05-02T17:10:39.845Z,100615.51
2018-05-02T17:13:42.470Z,100622.05
2018-05-02T17:16:45.035Z,100621.73
2018-05-02T17:19:47.676Z,100619.73
2018-05-02T17:22:50.376Z,100620.78
2018-05-02T17:25:53.029Z,100621.70
2018-05-02T17:28:55.796Z,100618.27
2018-05-02T17:31:58.351Z,100612.47
2018-05-02T17:35:00.895Z,100610.34
2018-05-02T17:38:03.540Z,100608.77
2018-05-02T17:41:06.272Z,100610.46
2018-05-02T17:44:08.940Z,100612.11
2018-05-02T17:47:11.596Z,100610.02
2018-05-02T17:50:14.237Z,100607.10
2018-05-02T17:53:17.046Z,100602.17
2018-05-02T17:56:19.712Z,100604.86
2018-05-02T17:59:22.539Z,100604.13
2018-05-02T18:02:25.184Z,100593.56
2018-05-02T18:05:27.907Z,100592.14
2018-05-02T18:08:30.550Z,100589.27
2018-05-02T18:11:33.283Z,100591.40
2018-05-02T18:14:36.046Z,100589.53
2018-05-02T18:17:39.854Z,100590.45
2018-05-02T18:20:43.698Z,100593.48
2018-05-02T18:23:46.334Z,100594.11
2018-05-02T18:26:49.096Z,100590.44
2018-05-02T18:29:52.350Z,100592.13
2018-05-02T18:32:55.585Z,100591.16
2018-05-02T18:35:58.300Z,100590.94
2018-05-02T18:39:01.358Z,100593.48
2018-05-02T18:42:04.290Z,100591.84
2018-05-02T18:45:07.052Z,100597.63
2018-05-02T18:48:10.070Z,100584.19
2018-05-02T18:51:12.964Z,100586.91
2018-05-02T18:54:15.758Z,100592.30
2018-05-02T18:57:18.501Z,100581.52
2018-05-02T19:00:21.177Z,100581.29
2018-05-02T19:03:23.898Z,100577.33
2018-05-02T19:06:26.637Z,100576.38
2018-05-02T19:09:31.459Z,100575.28
2018-05-02T19:12:34.157Z,100574.19
2018-05-02T19:15:36.962Z,100580.34
2018-05-02T19:18:45.230Z,100584.66
2018-05-02T19:21:47.849Z,100583.17
2018-05-02T19:24:55.965Z,100586.31
2018-05-02T19:27:58.537Z,100588.63
2018-05-02T19:31:06.664Z,100588.05
2018-05-02T19:34:09.315Z,100586.03
2018-05-02T19:37:12.023Z,100583.18
2018-05-02T19:40:20.316Z,100584.08
2018-05-02T19:43:28.513Z,100576.81
2018-05-02T19:46:31.200Z,100572.64
2018-05-02T19:49:34.055Z,100576.09
2018-05-02T19:52:42.122Z,100569.84
2018-05-02T19:55:44.780Z,100569.94
2018-05-02T19:58:47.468Z,100568.61
2018-05-02T20:01:55.710Z,100567.06
2018-05-02T20:04:58.384Z,100561.95
2018-05-02T20:08:01.006Z,100558.46
2018-05-02T20:11:09.140Z,100554.64
2018-05-02T20:14:11.698Z,100548.81
2018-05-02T20:17:14.337Z,100537.80
2018-05-02T20:20:16.898Z,100534.16
2018-05-02T20:23:19.477Z,100538.23
2018-05-02T20:26:22.214Z,100534.41
2018-05-02T20:29:24.773Z,100542.78
2018-05-02T20:32:27.599Z,100536.48
2018-05-02T20:35:30.349Z,100532.80
2018-05-02T20:38:33.534Z,100531.80
2018-05-02T20:41:36.150Z,100522.67
2018-05-02T20:44:38.790Z,100508.01
2018-05-02T20:47:41.526Z,100524.23
2018-05-02T20:50:44.133Z,100520.94
2018-05-02T20:53:46.661Z,100515.41
2018-05-02T20:56:50.074Z,100515.23
2018-05-02T20:59:52.654Z,100514.87
2018-05-02T21:02:55.427Z,100511.13
2018-05-02T21:05:58.079Z,100501.23
2018-05-02T21:09:02.702Z,100494.40
2018-05-02T21:12:05.342Z,100496.28
2018-05-02T21:15:07.887Z,100496.87
2018-05-02T21:18:10.506Z,100494.78
2018-05-02T21:21:13.053Z,100487.98
2018-05-02T21:24:15.619Z,100497.02
2018-05-02T21:27:18.192Z,100499.96
2018-05-02T21:30:20.692Z,100494.47
2018-05-02T21:33:23.230Z,100497.87
2018-05-02T21:36:25.744Z,100504.15
2018-05-02T21:39:28.282Z,100510.63
2018-05-02T21:42:30.831Z,100513.95
2018-05-02T21:45:33.371Z,100514.06
2018-05-02T21:48:35.877Z,100496.80
2018-05-02T21:51:38.403Z,100496.67
2018-05-02T21:54:41.963Z,100497.22
2018-05-02T21:57:44.553Z,100485.20
2018-05-02T22:00:47.140Z,100471.39
2018-05-02T22:03:49.757Z,100463.03
2018-05-02T22:06:52.255Z,100462.11
2018-05-02T22:09:54.804Z,100468.59
2018-05-02T22:12:57.406Z,100458.44
2018-05-02T22:15:59.916Z,100463.94
2018-05-02T22:19:02.491Z,100469.80
2018-05-02T22:22:05.033Z,100451.73
2018-05-02T22:25:07.562Z,100454.01
2018-05-02T22:28:10.154Z,100447.22
2018-05-02T22:31:12.716Z,100443.56
2018-05-02T22:34:15.248Z,100442.85
2018-05-02T22:37:17.857Z,100438.88
2018-05-02T22:40:20.450Z,100450.84
2018-05-02T22:43:22.985Z,100453.77
2018-05-02T22:46:25.654Z,100447.63
2018-05-02T22:49:28.183Z,100445.34
2018-05-02T22:52:30.725Z,100444.48
2018-05-02T22:55:33.317Z,100436.50
2018-05-02T22:58:35.847Z,100431.23
2018-05-02T23:01:38.359Z,100441.73
2018-05-02T23:04:40.878Z,100445.09
2018-05-02T23:07:43.421Z,100458.99
2018-05-02T23:10:45.931Z,100467.77
2018-05-02T23:13:48.433Z,100466.47
2018-05-02T23:16:50.951Z,100461.95
2018-05-02T23:19:53.458Z,100477.98
2018-05-02T23:22:55.992Z,100475.38
2018-05-02T23:25:58.491Z,100471.66
2018-05-02T23:29:00.995Z,100454.88
2018-05-02T23:32:03.528Z,100442.12
2018-05-02T23:35:06.027Z,100443.17
2018-05-02T23:38:09.059Z,100435.11
2018-05-02T23:41:11.563Z,100442.60
2018-05-02T23:44:14.054Z,100432.92
2018-05-02T23:47:16.586Z,100425.92
2018-05-02T23:50:19.085Z,100415.12
2018-05-02T23:53:21.573Z,100413.83
2018-05-02T23:56:24.037Z,100411.19
2018-05-02T23:59:26.574Z,100404.09
